sensor_id;sensor_type;location;lat;lon;timestamp;temperature;humidity
38221;DHT22;24023;51.280;7.148;2023-03-13T00:00:12;9.5;77.8
38221;DHT22;24023;51.280;7.148;2023-03-13T00:05:06;9.5;77.8
38221;DHT22;24023;51.280;7.148;2023-03-13T00:10:09;9.5;77.8
38221;DHT22;24023;51.280;7.148;2023-03-13T00:15:08;9.5;78.6
38221;DHT22;24023;51.280;7.148;2023-03-13T00:20:09;9.5;78.6
38221;DHT22;24023;51.280;7.148;2023-03-13T00:25:07;9.5;78.6
38221;DHT22;24023;51.280;7.148;2023-03-13T00:30:10;9.5;79.1
38221;DHT22;24023;51.280;7.148;2023-03-13T00:35:06;9.5;79.1
38221;DHT22;24023;51.280;7.148;2023-03-13T00:40:09;9.7;80.0
38221;DHT22;24023;51.280;7.148;2023-03-13T00:45:10;9.7;80.0
38221;DHT22;24023;51.280;7.148;2023-03-13T00:50:08;9.7;80.0
38221;DHT22;24023;51.280;7.148;2023-03-13T00:55:07;9.7;80.0
38221;DHT22;24023;51.280;7.148;2023-03-13T01:00:12;9.7;81.4
38221;DHT22;24023;51.280;7.148;2023-03-13T01:05:07;9.7;81.4
38221;DHT22;24023;51.280;7.148;2023-03-13T01:10:09;9.6;84.0
38221;DHT22;24023;51.280;7.148;2023-03-13T01:15:08;9.5;85.1
38221;DHT22;24023;51.280;7.148;2023-03-13T01:20:10;9.5;85.1
38221;DHT22;24023;51.280;7.148;2023-03-13T01:25:07;9.5;87.0
38221;DHT22;24023;51.280;7.148;2023-03-13T01:30:10;9.5;87.0
38221;DHT22;24023;51.280;7.148;2023-03-13T01:35:07;9.3;89.2
38221;DHT22;24023;51.280;7.148;2023-03-13T01:40:09;9.3;89.2
38221;DHT22;24023;51.280;7.148;2023-03-13T01:45:50;9.2;89.9
38221;DHT22;24023;51.280;7.148;2023-03-13T01:50:08;9.2;89.9
38221;DHT22;24023;51.280;7.148;2023-03-13T01:55:09;9.2;90.0
38221;DHT22;24023;51.280;7.148;2023-03-13T02:00:14;9.2;90.0
38221;DHT22;24023;51.280;7.148;2023-03-13T02:05:07;9.2;90.3
38221;DHT22;24023;51.280;7.148;2023-03-13T02:10:09;9.2;90.3
38221;DHT22;24023;51.280;7.148;2023-03-13T02:15:11;9.2;90.3
38221;DHT22;24023;51.280;7.148;2023-03-13T02:20:11;9.1;91.2
38221;DHT22;24023;51.280;7.148;2023-03-13T02:25:11;9.1;91.2
38221;DHT22;24023;51.280;7.148;2023-03-13T02:30:11;9.1;91.3
38221;DHT22;24023;51.280;7.148;2023-03-13T02:35:09;9.1;91.4
38221;DHT22;24023;51.280;7.148;2023-03-13T02:40:13;9.1;91.4
38221;DHT22;24023;51.280;7.148;2023-03-13T02:45:12;9.1;91.4
38221;DHT22;24023;51.280;7.148;2023-03-13T02:50:10;9.2;92.1
38221;DHT22;24023;51.280;7.148;2023-03-13T02:55:11;9.2;92.1
38221;DHT22;24023;51.280;7.148;2023-03-13T03:00:13;9.1;92.5
38221;DHT22;24023;51.280;7.148;2023-03-13T03:05:08;9.2;92.0
38221;DHT22;24023;51.280;7.148;2023-03-13T03:10:09;9.2;92.0
38221;DHT22;24023;51.280;7.148;2023-03-13T03:15:09;9.2;92.2
38221;DHT22;24023;51.280;7.148;2023-03-13T03:20:11;9.2;92.2
38221;DHT22;24023;51.280;7.148;2023-03-13T03:25:08;9.2;92.2
38221;DHT22;24023;51.280;7.148;2023-03-13T03:30:10;9.3;92.4
38221;DHT22;24023;51.280;7.148;2023-03-13T03:35:08;9.3;92.4
38221;DHT22;24023;51.280;7.148;2023-03-13T03:40:10;9.5;92.0
38221;DHT22;24023;51.280;7.148;2023-03-13T03:45:10;9.5;92.0
38221;DHT22;24023;51.280;7.148;2023-03-13T03:50:10;9.5;92.0
38221;DHT22;24023;51.280;7.148;2023-03-13T03:55:07;9.5;92.1
38221;DHT22;24023;51.280;7.148;2023-03-13T04:00:13;9.5;92.1
38221;DHT22;24023;51.280;7.148;2023-03-13T04:05:07;9.5;91.8
38221;DHT22;24023;51.280;7.148;2023-03-13T04:10:09;9.5;91.8
38221;DHT22;24023;51.280;7.148;2023-03-13T04:15:08;9.5;91.8
38221;DHT22;24023;51.280;7.148;2023-03-13T04:20:10;9.6;92.1
38221;DHT22;24023;51.280;7.148;2023-03-13T04:25:07;9.6;92.1
38221;DHT22;24023;51.280;7.148;2023-03-13T04:30:10;9.6;92.5
38221;DHT22;24023;51.280;7.148;2023-03-13T04:35:07;9.6;92.5
38221;DHT22;24023;51.280;7.148;2023-03-13T04:40:09;9.8;92.2
38221;DHT22;24023;51.280;7.148;2023-03-13T04:45:11;9.8;92.2
38221;DHT22;24023;51.280;7.148;2023-03-13T04:50:09;9.8;92.2
38221;DHT22;24023;51.280;7.148;2023-03-13T04:55:08;9.8;92.4
38221;DHT22;24023;51.280;7.148;2023-03-13T05:00:12;9.8;92.4
38221;DHT22;24023;51.280;7.148;2023-03-13T05:05:06;10.0;92.1
38221;DHT22;24023;51.280;7.148;2023-03-13T05:10:09;10.0;92.1
38221;DHT22;24023;51.280;7.148;2023-03-13T05:15:08;10.0;92.1
38221;DHT22;24023;51.280;7.148;2023-03-13T05:20:11;10.1;92.0
38221;DHT22;24023;51.280;7.148;2023-03-13T05:25:08;10.1;92.0
38221;DHT22;24023;51.280;7.148;2023-03-13T05:30:11;10.2;92.0
38221;DHT22;24023;51.280;7.148;2023-03-13T05:35:07;10.2;92.0
38221;DHT22;24023;51.280;7.148;2023-03-13T05:40:09;10.2;92.0
38221;DHT22;24023;51.280;7.148;2023-03-13T05:45:12;10.3;92.3
38221;DHT22;24023;51.280;7.148;2023-03-13T05:50:09;10.3;92.3
38221;DHT22;24023;51.280;7.148;2023-03-13T05:55:07;10.4;92.2
38221;DHT22;24023;51.280;7.148;2023-03-13T06:00:13;10.4;92.2
38221;DHT22;24023;51.280;7.148;2023-03-13T06:05:07;10.4;92.2
38221;DHT22;24023;51.280;7.148;2023-03-13T06:10:09;10.4;92.3
38221;DHT22;24023;51.280;7.148;2023-03-13T06:15:10;10.4;92.3
38221;DHT22;24023;51.280;7.148;2023-03-13T06:20:09;10.5;92.2
38221;DHT22;24023;51.280;7.148;2023-03-13T06:25:08;10.5;92.2
38221;DHT22;24023;51.280;7.148;2023-03-13T06:30:10;10.5;92.2
38221;DHT22;24023;51.280;7.148;2023-03-13T06:35:07;10.5;92.2
38221;DHT22;24023;51.280;7.148;2023-03-13T06:40:09;10.5;92.2
38221;DHT22;24023;51.280;7.148;2023-03-13T06:45:09;10.6;92.0
38221;DHT22;24023;51.280;7.148;2023-03-13T06:50:09;10.6;92.0
38221;DHT22;24023;51.280;7.148;2023-03-13T06:55:07;10.8;92.0
38221;DHT22;24023;51.280;7.148;2023-03-13T07:00:11;10.8;92.0
38221;DHT22;24023;51.280;7.148;2023-03-13T07:05:07;10.8;92.0
38221;DHT22;24023;51.280;7.148;2023-03-13T07:10:09;10.9;91.7
38221;DHT22;24023;51.280;7.148;2023-03-13T07:15:10;10.9;91.7
38221;DHT22;24023;51.280;7.148;2023-03-13T07:20:11;11.2;91.4
38221;DHT22;24023;51.280;7.148;2023-03-13T07:25:08;11.2;91.4
38221;DHT22;24023;51.280;7.148;2023-03-13T07:30:10;11.2;91.4
38221;DHT22;24023;51.280;7.148;2023-03-13T07:35:07;11.3;91.2
38221;DHT22;24023;51.280;7.148;2023-03-13T07:40:09;11.3;91.2
38221;DHT22;24023;51.280;7.148;2023-03-13T07:45:10;11.4;90.6
38221;DHT22;24023;51.280;7.148;2023-03-13T07:50:09;11.4;90.6
38221;DHT22;24023;51.280;7.148;2023-03-13T07:55:07;11.6;89.6
38221;DHT22;24023;51.280;7.148;2023-03-13T08:00:17;11.6;89.6
38221;DHT22;24023;51.280;7.148;2023-03-13T08:05:07;11.8;88.5
38221;DHT22;24023;51.280;7.148;2023-03-13T08:10:09;11.8;88.5
38221;DHT22;24023;51.280;7.148;2023-03-13T08:15:08;12.0;92.9
38221;DHT22;24023;51.280;7.148;2023-03-13T08:20:10;12.0;92.9
38221;DHT22;24023;51.280;7.148;2023-03-13T08:25:07;11.9;95.2
38221;DHT22;24023;51.280;7.148;2023-03-13T08:30:10;11.8;86.7
38221;DHT22;24023;51.280;7.148;2023-03-13T08:35:07;11.8;86.7
38221;DHT22;24023;51.280;7.148;2023-03-13T08:40:11;11.8;88.1
38221;DHT22;24023;51.280;7.148;2023-03-13T08:45:09;11.8;88.1
38221;DHT22;24023;51.280;7.148;2023-03-13T08:50:09;11.9;87.5
38221;DHT22;24023;51.280;7.148;2023-03-13T08:55:08;11.9;87.5
38221;DHT22;24023;51.280;7.148;2023-03-13T09:05:07;12.1;86.7
38221;DHT22;24023;51.280;7.148;2023-03-13T09:10:09;12.1;86.7
38221;DHT22;24023;51.280;7.148;2023-03-13T09:15:08;12.0;87.6
38221;DHT22;24023;51.280;7.148;2023-03-13T09:20:09;12.0;87.6
38221;DHT22;24023;51.280;7.148;2023-03-13T09:25:07;12.0;87.6
38221;DHT22;24023;51.280;7.148;2023-03-13T09:30:10;12.2;86.8
38221;DHT22;24023;51.280;7.148;2023-03-13T09:35:07;12.1;88.9
38221;DHT22;24023;51.280;7.148;2023-03-13T09:40:13;12.1;88.9
38221;DHT22;24023;51.280;7.148;2023-03-13T09:45:14;12.1;88.9
38221;DHT22;24023;51.280;7.148;2023-03-13T09:50:12;12.4;89.2
38221;DHT22;24023;51.280;7.148;2023-03-13T09:55:12;12.4;89.2
38221;DHT22;24023;51.280;7.148;2023-03-13T10:00:16;12.5;89.0
38221;DHT22;24023;51.280;7.148;2023-03-13T10:05:12;12.5;89.0
38221;DHT22;24023;51.280;7.148;2023-03-13T10:10:13;12.5;89.0
38221;DHT22;24023;51.280;7.148;2023-03-13T10:15:22;12.6;88.1
38221;DHT22;24023;51.280;7.148;2023-03-13T10:20:19;12.6;88.1
38221;DHT22;24023;51.280;7.148;2023-03-13T10:25:10;13.2;85.7
38221;DHT22;24023;51.280;7.148;2023-03-13T10:30:19;13.2;85.7
38221;DHT22;24023;51.280;7.148;2023-03-13T10:35:08;13.9;82.4
38221;DHT22;24023;51.280;7.148;2023-03-13T10:40:12;13.6;84.7
38221;DHT22;24023;51.280;7.148;2023-03-13T10:45:14;13.6;84.7
38221;DHT22;24023;51.280;7.148;2023-03-13T10:50:17;13.5;83.4
38221;DHT22;24023;51.280;7.148;2023-03-13T10:55:10;13.5;83.4
38221;DHT22;24023;51.280;7.148;2023-03-13T11:00:29;13.5;83.4
38221;DHT22;24023;51.280;7.148;2023-03-13T11:05:29;13.4;82.4
38221;DHT22;24023;51.280;7.148;2023-03-13T11:10:17;13.4;82.4
38221;DHT22;24023;51.280;7.148;2023-03-13T11:15:13;13.4;82.4
38221;DHT22;24023;51.280;7.148;2023-03-13T11:20:16;13.7;81.8
38221;DHT22;24023;51.280;7.148;2023-03-13T11:25:17;13.7;81.8
38221;DHT22;24023;51.280;7.148;2023-03-13T11:30:19;13.7;80.1
38221;DHT22;24023;51.280;7.148;2023-03-13T11:35:17;13.7;80.1
38221;DHT22;24023;51.280;7.148;2023-03-13T11:40:17;13.7;80.1
38221;DHT22;24023;51.280;7.148;2023-03-13T11:45:22;13.8;79.6
38221;DHT22;24023;51.280;7.148;2023-03-13T11:50:17;13.8;79.6
38221;DHT22;24023;51.280;7.148;2023-03-13T11:55:19;13.6;80.2
38221;DHT22;24023;51.280;7.148;2023-03-13T12:00:19;13.6;80.2
38221;DHT22;24023;51.280;7.148;2023-03-13T12:05:09;13.6;80.2
38221;DHT22;24023;51.280;7.148;2023-03-13T12:10:11;13.9;78.7
38221;DHT22;24023;51.280;7.148;2023-03-13T12:15:18;13.9;78.7
38221;DHT22;24023;51.280;7.148;2023-03-13T12:20:14;14.1;77.7
38221;DHT22;24023;51.280;7.148;2023-03-13T12:25:13;14.7;74.9
38221;DHT22;24023;51.280;7.148;2023-03-13T12:30:19;14.5;77.2
38221;DHT22;24023;51.280;7.148;2023-03-13T12:35:15;14.5;77.2
38221;DHT22;24023;51.280;7.148;2023-03-13T12:40:15;14.5;77.2
38221;DHT22;24023;51.280;7.148;2023-03-13T12:45:15;14.1;78.0
38221;DHT22;24023;51.280;7.148;2023-03-13T12:50:17;14.1;78.0
38221;DHT22;24023;51.280;7.148;2023-03-13T12:55:27;14.3;76.6
38221;DHT22;24023;51.280;7.148;2023-03-13T13:00:15;14.3;76.6
38221;DHT22;24023;51.280;7.148;2023-03-13T13:05:17;14.3;74.0
38221;DHT22;24023;51.280;7.148;2023-03-13T13:10:18;14.3;74.0
38221;DHT22;24023;51.280;7.148;2023-03-13T13:15:16;14.3;74.0
38221;DHT22;24023;51.280;7.148;2023-03-13T13:20:29;14.2;74.2
38221;DHT22;24023;51.280;7.148;2023-03-13T13:25:28;14.2;74.2
38221;DHT22;24023;51.280;7.148;2023-03-13T13:30:29;14.2;75.4
38221;DHT22;24023;51.280;7.148;2023-03-13T13:35:20;14.2;76.5
38221;DHT22;24023;51.280;7.148;2023-03-13T13:40:19;14.2;76.5
38221;DHT22;24023;51.280;7.148;2023-03-13T13:45:21;14.5;72.8
38221;DHT22;24023;51.280;7.148;2023-03-13T13:50:16;14.5;72.8
38221;DHT22;24023;51.280;7.148;2023-03-13T13:56:28;14.5;72.8
38221;DHT22;24023;51.280;7.148;2023-03-13T14:00:17;14.5;72.5
38221;DHT22;24023;51.280;7.148;2023-03-13T14:05:13;14.6;73.2
38221;DHT22;24023;51.280;7.148;2023-03-13T14:10:20;14.6;73.2
38221;DHT22;24023;51.280;7.148;2023-03-13T14:15:13;14.6;73.2
38221;DHT22;24023;51.280;7.148;2023-03-13T14:20:27;14.5;72.5
38221;DHT22;24023;51.280;7.148;2023-03-13T14:25:07;14.5;72.3
38221;DHT22;24023;51.280;7.148;2023-03-13T14:30:10;14.5;72.3
38221;DHT22;24023;51.280;7.148;2023-03-13T14:35:09;14.3;74.0
38221;DHT22;24023;51.280;7.148;2023-03-13T14:40:19;14.3;74.0
38221;DHT22;24023;51.280;7.148;2023-03-13T14:45:12;14.2;75.1
38221;DHT22;24023;51.280;7.148;2023-03-13T14:50:10;14.2;75.1
38221;DHT22;24023;51.280;7.148;2023-03-13T14:55:26;14.2;75.1
38221;DHT22;24023;51.280;7.148;2023-03-13T15:00:29;14.0;77.3
38221;DHT22;24023;51.280;7.148;2023-03-13T15:05:30;14.0;77.3
38221;DHT22;24023;51.280;7.148;2023-03-13T15:10:28;14.0;75.1
38221;DHT22;24023;51.280;7.148;2023-03-13T15:15:09;14.0;75.1
38221;DHT22;24023;51.280;7.148;2023-03-13T15:20:12;14.1;73.4
38221;DHT22;24023;51.280;7.148;2023-03-13T15:25:14;14.0;73.6
38221;DHT22;24023;51.280;7.148;2023-03-13T15:30:14;14.0;73.6
38221;DHT22;24023;51.280;7.148;2023-03-13T15:35:21;14.0;73.6
38221;DHT22;24023;51.280;7.148;2023-03-13T15:40:13;13.8;74.7
38221;DHT22;24023;51.280;7.148;2023-03-13T15:45:11;13.8;74.7
38221;DHT22;24023;51.280;7.148;2023-03-13T15:50:11;13.7;75.8
38221;DHT22;24023;51.280;7.148;2023-03-13T15:55:09;13.7;75.8
38221;DHT22;24023;51.280;7.148;2023-03-13T16:00:19;13.7;75.8
38221;DHT22;24023;51.280;7.148;2023-03-13T16:05:08;13.8;76.2
38221;DHT22;24023;51.280;7.148;2023-03-13T16:10:15;13.8;76.2
38221;DHT22;24023;51.280;7.148;2023-03-13T16:15:08;13.8;76.2
38221;DHT22;24023;51.280;7.148;2023-03-13T16:20:14;13.9;74.7
38221;DHT22;24023;51.280;7.148;2023-03-13T16:25:08;13.9;74.7
38221;DHT22;24023;51.280;7.148;2023-03-13T16:30:15;13.7;75.5
38221;DHT22;24023;51.280;7.148;2023-03-13T16:35:07;13.7;75.5
38221;DHT22;24023;51.280;7.148;2023-03-13T16:40:14;13.7;75.5
38221;DHT22;24023;51.280;7.148;2023-03-13T16:45:10;13.5;74.4
38221;DHT22;24023;51.280;7.148;2023-03-13T16:50:18;13.5;74.4
38221;DHT22;24023;51.280;7.148;2023-03-13T16:55:07;13.4;74.4
38221;DHT22;24023;51.280;7.148;2023-03-13T17:00:15;13.4;74.4
38221;DHT22;24023;51.280;7.148;2023-03-13T17:05:07;13.2;73.2
38221;DHT22;24023;51.280;7.148;2023-03-13T17:10:17;13.2;73.2
38221;DHT22;24023;51.280;7.148;2023-03-13T17:15:09;13.2;73.2
38221;DHT22;24023;51.280;7.148;2023-03-13T17:20:13;13.1;71.1
38221;DHT22;24023;51.280;7.148;2023-03-13T17:25:08;13.1;71.1
38221;DHT22;24023;51.280;7.148;2023-03-13T17:30:18;12.9;72.4
38221;DHT22;24023;51.280;7.148;2023-03-13T17:35:07;12.9;72.4
38221;DHT22;24023;51.280;7.148;2023-03-13T17:40:15;12.9;72.4
38221;DHT22;24023;51.280;7.148;2023-03-13T17:45:11;12.8;73.4
38221;DHT22;24023;51.280;7.148;2023-03-13T17:50:15;12.8;73.4
38221;DHT22;24023;51.280;7.148;2023-03-13T17:55:07;12.7;74.9
38221;DHT22;24023;51.280;7.148;2023-03-13T18:00:18;12.7;74.9
38221;DHT22;24023;51.280;7.148;2023-03-13T18:05:06;12.6;75.5
38221;DHT22;24023;51.280;7.148;2023-03-13T18:10:15;12.6;75.5
38221;DHT22;24023;51.280;7.148;2023-03-13T18:15:08;12.6;75.7
38221;DHT22;24023;51.280;7.148;2023-03-13T18:20:14;12.6;75.7
38221;DHT22;24023;51.280;7.148;2023-03-13T18:25:08;12.4;75.6
38221;DHT22;24023;51.280;7.148;2023-03-13T18:30:15;12.4;75.6
38221;DHT22;24023;51.280;7.148;2023-03-13T18:35:07;12.4;75.6
38221;DHT22;24023;51.280;7.148;2023-03-13T18:40:15;12.5;74.8
38221;DHT22;24023;51.280;7.148;2023-03-13T18:45:13;12.5;74.8
38221;DHT22;24023;51.280;7.148;2023-03-13T18:50:25;12.4;74.4
38221;DHT22;24023;51.280;7.148;2023-03-13T18:55:07;12.4;74.4
38221;DHT22;24023;51.280;7.148;2023-03-13T19:00:18;12.4;74.4
38221;DHT22;24023;51.280;7.148;2023-03-13T19:05:06;12.4;74.3
38221;DHT22;24023;51.280;7.148;2023-03-13T19:10:17;12.4;74.3
38221;DHT22;24023;51.280;7.148;2023-03-13T19:15:08;12.3;74.6
38221;DHT22;24023;51.280;7.148;2023-03-13T19:20:13;12.3;74.6
38221;DHT22;24023;51.280;7.148;2023-03-13T19:25:07;12.4;75.2
38221;DHT22;24023;51.280;7.148;2023-03-13T19:30:14;12.4;75.2
38221;DHT22;24023;51.280;7.148;2023-03-13T19:35:08;12.3;75.1
38221;DHT22;24023;51.280;7.148;2023-03-13T19:40:16;12.3;75.1
38221;DHT22;24023;51.280;7.148;2023-03-13T19:45:13;12.3;75.1
38221;DHT22;24023;51.280;7.148;2023-03-13T19:50:15;12.1;75.3
38221;DHT22;24023;51.280;7.148;2023-03-13T19:55:07;12.1;75.3
38221;DHT22;24023;51.280;7.148;2023-03-13T20:00:18;12.0;75.6
38221;DHT22;24023;51.280;7.148;2023-03-13T20:05:07;12.0;75.6
38221;DHT22;24023;51.280;7.148;2023-03-13T20:10:09;12.0;75.6
38221;DHT22;24023;51.280;7.148;2023-03-13T20:15:08;11.8;76.1
38221;DHT22;24023;51.280;7.148;2023-03-13T20:20:10;11.8;76.1
38221;DHT22;24023;51.280;7.148;2023-03-13T20:25:07;11.8;76.1
38221;DHT22;24023;51.280;7.148;2023-03-13T20:30:10;11.8;75.9
38221;DHT22;24023;51.280;7.148;2023-03-13T20:35:12;11.7;75.9
38221;DHT22;24023;51.280;7.148;2023-03-13T20:40:09;11.7;75.9
38221;DHT22;24023;51.280;7.148;2023-03-13T20:45:10;11.7;76.1
38221;DHT22;24023;51.280;7.148;2023-03-13T20:50:09;11.7;76.1
38221;DHT22;24023;51.280;7.148;2023-03-13T20:55:07;11.7;76.1
38221;DHT22;24023;51.280;7.148;2023-03-13T21:00:13;11.6;76.5
38221;DHT22;24023;51.280;7.148;2023-03-13T21:05:07;11.6;76.5
38221;DHT22;24023;51.280;7.148;2023-03-13T21:10:09;11.4;77.2
38221;DHT22;24023;51.280;7.148;2023-03-13T21:15:09;11.4;77.2
38221;DHT22;24023;51.280;7.148;2023-03-13T21:20:11;11.4;77.2
38221;DHT22;24023;51.280;7.148;2023-03-13T21:25:07;11.3;77.2
38221;DHT22;24023;51.280;7.148;2023-03-13T21:30:14;11.3;77.2
38221;DHT22;24023;51.280;7.148;2023-03-13T21:35:08;11.3;77.0
38221;DHT22;24023;51.280;7.148;2023-03-13T21:40:10;11.3;77.0
38221;DHT22;24023;51.280;7.148;2023-03-13T21:45:11;11.2;77.6
38221;DHT22;24023;51.280;7.148;2023-03-13T21:50:10;11.2;77.6
38221;DHT22;24023;51.280;7.148;2023-03-13T21:55:09;11.1;77.8
38221;DHT22;24023;51.280;7.148;2023-03-13T22:00:14;11.1;77.8
38221;DHT22;24023;51.280;7.148;2023-03-13T22:05:07;11.1;77.8
38221;DHT22;24023;51.280;7.148;2023-03-13T22:10:09;11.1;77.6
38221;DHT22;24023;51.280;7.148;2023-03-13T22:15:09;11.1;77.6
38221;DHT22;24023;51.280;7.148;2023-03-13T22:20:10;11.1;78.3
38221;DHT22;24023;51.280;7.148;2023-03-13T22:25:07;11.1;78.3
38221;DHT22;24023;51.280;7.148;2023-03-13T22:30:11;11.2;77.8
38221;DHT22;24023;51.280;7.148;2023-03-13T22:35:07;11.2;77.8
38221;DHT22;24023;51.280;7.148;2023-03-13T22:40:10;11.2;77.8
38221;DHT22;24023;51.280;7.148;2023-03-13T22:45:10;11.2;77.6
38221;DHT22;24023;51.280;7.148;2023-03-13T22:50:11;11.2;77.6
38221;DHT22;24023;51.280;7.148;2023-03-13T22:55:07;11.0;77.8
38221;DHT22;24023;51.280;7.148;2023-03-13T23:00:20;11.0;77.8
38221;DHT22;24023;51.280;7.148;2023-03-13T23:05:08;11.0;77.8
38221;DHT22;24023;51.280;7.148;2023-03-13T23:10:10;10.9;77.9
38221;DHT22;24023;51.280;7.148;2023-03-13T23:15:09;10.9;77.9
38221;DHT22;24023;51.280;7.148;2023-03-13T23:20:12;10.7;78.2
38221;DHT22;24023;51.280;7.148;2023-03-13T23:25:07;10.7;78.2
38221;DHT22;24023;51.280;7.148;2023-03-13T23:30:12;10.7;78.2
38221;DHT22;24023;51.280;7.148;2023-03-13T23:35:08;10.5;78.3
38221;DHT22;24023;51.280;7.148;2023-03-13T23:40:09;10.5;78.3
38221;DHT22;24023;51.280;7.148;2023-03-13T23:45:11;10.6;77.6
38221;DHT22;24023;51.280;7.148;2023-03-13T23:50:09;10.6;77.6
38221;DHT22;24023;51.280;7.148;2023-03-13T23:55:08;10.6;77.6
